aviador You're here:

KPHL Decoded Metar

PHILADELPHIA in PA, USA
Report Time2017-11-24 00:54:00
UTC Time2017-11-24 01:54:15
Flight Rules vfr VFR
Wind280° at 06 kt
W.Decomp.*RWY 27: 5.6 kt HW 2.1 kt RCW
RWY 26: 5.2 kt HW 3.0 kt RCW
RWY 35: 3.0 kt HW 5.2 kt LCW
W.Rank280° ranks 14
Current wind is below 280° avg. (10.6)
Visibility9999 m
Phenomena:N/A
Clouds:N/A
Expected CloudBase > 3,600 ft AGL from Temp-Dew spread
CeilingNone
Temp03°C (ISA -12)
Dew Point-6°C (52% RH)
AAT-1.9°C
QNH1018 hPa
Density Alt-1,499 ft
Elevation59 ft
Report Wrong Elevation
Raw Report
KPHL 240054Z 28006KT 10SM CLR 03/M06 A3005 RMK AO2 SLP175
T00281061=

Extra information for KPHL:More info

Metar Taf Metar & Taf Last 4 Metars F.Rules Stats Wind Profile Meteogram Temp Stats Airport Information Weather charts Add Link Nearby VenuesMetar ALERT Operation Metar Decoded Social comments

AIRNAV info for KPHL